Time;durP1;ratioP1;P1;durP2;ratioP2;P2;SDS_P1;SDS_P2;PMS_P1;PMS_P2;Temp;Humidity;BMP_temperature;BMP_pressure;BME280_temperature;BME280_humidity;BME280_pressure;Samples;Min_cycle;Max_cycle;Signal;HPM_P1;HPM_P2
2023/01/04 00:01:54;;;;;;;90.63;11.68;;;;;;;6.56;100.00;99144.81;5029387;28;20119;-55
2023/01/04 00:04:19;;;;;;;92.60;12.07;;;;;;;6.56;100.00;99138.75;5028414;28;20140;-55
2023/01/04 00:06:45;;;;;;;84.60;12.70;;;;;;;6.30;100.00;99133.63;5025916;28;20147;-55
2023/01/04 00:09:10;;;;;;;108.97;12.80;;;;;;;6.21;100.00;99134.22;5030695;28;20171;-55
2023/01/04 00:11:35;;;;;;;67.28;9.50;;;;;;;6.42;100.00;99139.19;5031267;28;20727;-55
2023/01/04 00:14:01;;;;;;;95.22;13.45;;;;;;;6.36;100.00;99141.59;5026538;28;20025;-56
2023/01/04 00:16:28;;;;;;;76.13;11.75;;;;;;;6.03;100.00;99142.22;5027427;28;20034;-56
2023/01/04 00:18:54;;;;;;;74.10;11.48;;;;;;;6.11;100.00;99136.53;5029670;28;20526;-55
2023/01/04 00:21:22;;;;;;;100.03;13.23;;;;;;;6.12;100.00;99139.97;5027762;28;20045;-56
2023/01/04 00:23:49;;;;;;;78.38;9.73;;;;;;;6.25;100.00;99143.84;5029401;28;20792;-56
2023/01/04 00:26:18;;;;;;;85.30;9.85;;;;;;;6.30;100.00;99142.28;5029580;28;20041;-55
2023/01/04 00:28:44;;;;;;;72.35;10.18;;;;;;;6.31;100.00;99138.00;5028019;28;20127;-55
2023/01/04 00:31:11;;;;;;;89.55;11.35;;;;;;;6.25;100.00;99139.56;5027383;28;20041;-54
2023/01/04 00:33:36;;;;;;;83.78;12.05;;;;;;;5.83;100.00;99145.88;5030885;28;20029;-57
2023/01/04 00:36:04;;;;;;;75.30;11.10;;;;;;;5.64;100.00;99140.91;5029809;28;20037;-55
2023/01/04 00:38:31;;;;;;;107.22;13.25;;;;;;;5.62;100.00;99138.25;5031348;28;20033;-54
2023/01/04 00:40:57;;;;;;;75.35;10.50;;;;;;;5.79;100.00;99125.94;5030064;28;20107;-55
2023/01/04 00:43:22;;;;;;;63.78;8.65;;;;;;;6.06;100.00;99132.91;5030958;28;20051;-55
2023/01/04 00:45:47;;;;;;;70.35;10.10;;;;;;;6.13;100.00;99134.00;5031006;28;20033;-55
2023/01/04 00:48:13;;;;;;;84.38;10.60;;;;;;;6.19;100.00;99133.28;5031854;28;20069;-55
2023/01/04 00:50:38;;;;;;;79.15;11.18;;;;;;;5.91;100.00;99128.06;5029147;28;20064;-54
2023/01/04 00:53:03;;;;;;;69.85;11.30;;;;;;;5.74;100.00;99130.06;5031583;28;20661;-55
2023/01/04 00:55:29;;;;;;;74.00;10.70;;;;;;;5.54;100.00;99114.78;5027991;28;20033;-57
2023/01/04 00:57:55;;;;;;;70.85;10.52;;;;;;;5.21;100.00;99105.88;5028308;28;20040;-55
2023/01/04 01:00:22;;;;;;;76.43;12.23;;;;;;;5.13;100.00;99106.41;5029091;28;20579;-55
2023/01/04 01:02:47;;;;;;;100.03;11.35;;;;;;;5.68;100.00;99101.47;5027652;28;20060;-56
2023/01/04 01:05:12;;;;;;;65.50;9.38;;;;;;;5.92;100.00;99095.38;5028000;28;20112;-54
2023/01/04 01:07:38;;;;;;;78.30;9.68;;;;;;;6.02;100.00;99110.34;5028594;28;20116;-54
2023/01/04 01:10:04;;;;;;;73.80;10.20;;;;;;;6.07;100.00;99102.78;5029884;28;20088;-55
2023/01/04 01:12:29;;;;;;;69.65;9.70;;;;;;;6.02;100.00;99102.59;5029544;28;20072;-55
2023/01/04 01:14:55;;;;;;;95.88;11.68;;;;;;;5.73;100.00;99099.91;5030654;28;20025;-55
2023/01/04 01:17:20;;;;;;;77.50;11.32;;;;;;;4.99;100.00;99101.63;5029168;28;20039;-55
2023/01/04 01:19:46;;;;;;;118.97;12.93;;;;;;;4.62;100.00;99105.41;5027775;28;20037;-57
2023/01/04 01:22:11;;;;;;;70.95;9.70;;;;;;;4.71;100.00;99102.31;5028681;28;20877;-56
2023/01/04 01:24:36;;;;;;;79.35;9.50;;;;;;;5.16;100.00;99096.22;5029952;28;20466;-55
2023/01/04 01:27:01;;;;;;;97.18;10.55;;;;;;;5.45;100.00;99101.53;5028519;28;20409;-55
2023/01/04 01:29:27;;;;;;;74.32;10.23;;;;;;;5.62;100.00;99099.56;5031920;28;20107;-55
2023/01/04 01:31:53;;;;;;;74.93;8.77;;;;;;;5.72;100.00;99098.16;5030601;28;20127;-55
2023/01/04 01:34:18;;;;;;;69.88;10.05;;;;;;;5.73;100.00;99095.63;5029740;28;20036;-54
2023/01/04 01:36:43;;;;;;;77.53;10.38;;;;;;;5.79;100.00;99101.84;5028164;28;20042;-54
2023/01/04 01:39:09;;;;;;;80.43;9.50;;;;;;;5.80;100.00;99093.25;5030523;28;20045;-53
2023/01/04 01:41:35;;;;;;;71.10;9.20;;;;;;;5.88;100.00;99091.81;5028800;28;20565;-54
2023/01/04 01:44:06;;;;;;;66.10;8.93;;;;;;;5.90;100.00;99097.03;5031658;28;20029;-54
2023/01/04 01:46:39;;;;;;;87.82;11.57;;;;;;;5.88;100.00;99101.25;5029208;28;20041;-55
2023/01/04 01:49:15;;;;;;;80.07;11.45;;;;;;;5.55;100.00;99106.19;5030438;28;20029;-55
2023/01/04 01:51:41;;;;;;;77.20;9.32;;;;;;;5.60;100.00;99106.34;5030549;28;20037;-54
2023/01/04 01:54:13;;;;;;;88.88;11.63;;;;;;;5.42;100.00;99107.47;5029634;28;20017;-54
2023/01/04 01:56:41;;;;;;;;;;;;;;;5.00;100.00;99100.81;5030195;28;20160;-54
2023/01/04 01:59:10;;;;;;;79.50;9.75;;;;;;;5.17;100.00;99105.72;5030437;28;19913;-55
2023/01/04 02:01:35;;;;;;;88.15;11.45;;;;;;;5.28;100.00;99111.25;5028113;28;20048;-54
2023/01/04 02:04:02;;;;;;;90.18;11.77;;;;;;;5.17;100.00;99103.13;5029656;28;20033;-54
2023/01/04 02:06:31;;;;;;;91.97;10.43;;;;;;;5.48;100.00;99096.47;5032000;28;20049;-55
2023/01/04 02:08:58;;;;;;;76.55;9.85;;;;;;;5.52;100.00;99102.63;5030818;28;20534;-55
2023/01/04 02:11:25;;;;;;;74.20;9.52;;;;;;;5.58;100.00;99087.38;5031144;28;20056;-56
2023/01/04 02:16:42;;;;;;;94.72;11.05;;;;;;;5.73;100.00;99081.84;5031320;28;20047;-54
2023/01/04 02:19:33;;;;;;;78.38;10.48;;;;;;;5.72;100.00;99087.84;5030066;28;20043;-54
2023/01/04 02:22:12;;;;;;;65.70;8.88;;;;;;;5.70;100.00;99089.47;5025400;28;20056;-56
2023/01/04 02:24:52;;;;;;;102.03;11.50;;;;;;;5.68;100.00;99078.25;5033557;28;20021;-54
2023/01/04 02:27:30;;;;;;;64.68;9.05;;;;;;;5.59;100.00;99077.09;5034186;28;20040;-54
2023/01/04 02:30:43;;;;;;;81.63;11.40;;;;;;;5.54;100.00;99065.75;5034959;28;21058;-55
2023/01/04 02:33:17;;;;;;;77.63;8.98;;;;;;;5.60;100.00;99065.94;5010919;28;20038;-54
2023/01/04 02:36:22;;;;;;;88.80;10.73;;;;;;;5.64;100.00;99061.75;5015708;28;20132;-54
2023/01/04 02:39:16;;;;;;;91.35;9.95;;;;;;;5.55;100.00;99057.16;5012778;28;20115;-55
2023/01/04 02:41:46;;;;;;;74.15;8.52;;;;;;;5.60;100.00;99055.63;5007500;28;20041;-55
2023/01/04 02:47:14;;;;;;;76.97;8.70;;;;;;;5.50;100.00;99056.13;5017823;28;20044;-54
2023/01/04 02:52:24;;;;;;;61.47;8.38;;;;;;;5.43;100.00;99065.38;5031430;28;20111;-54
2023/01/04 02:54:54;;;;;;;60.55;8.10;;;;;;;5.50;100.00;99061.31;5031187;28;20025;-54
2023/01/04 02:57:44;;;;;;;63.05;8.73;;;;;;;5.51;100.00;99057.88;5031827;28;20165;-54
2023/01/04 03:00:23;;;;;;;88.03;11.15;;;;;;;5.20;100.00;99065.41;5031745;28;20479;-55
2023/01/04 03:09:00;;;;;;;80.00;9.32;;;;;;;5.40;100.00;99066.94;5033571;28;20105;-55
2023/01/04 03:14:37;;;;;;;68.68;8.43;;;;;;;5.46;100.00;99057.72;5030777;28;20037;-55
2023/01/04 03:17:11;;;;;;;70.97;9.57;;;;;;;5.56;100.00;99058.91;5029947;28;20068;-55
2023/01/04 03:19:51;;;;;;;88.32;9.65;;;;;;;5.85;100.00;99064.19;5032622;28;20787;-55
2023/01/04 03:37:06;;;;;;;79.95;12.05;;;;;;;6.33;100.00;99054.53;5031107;28;20044;-55
2023/01/04 03:48:40;;;;;;;92.20;11.77;;;;;;;5.38;100.00;99043.66;5033797;28;20514;-55
2023/01/04 03:51:13;;;;;;;101.53;11.60;;;;;;;5.54;100.00;99045.09;5029042;28;20561;-55
2023/01/04 03:53:51;;;;;;;106.35;12.77;;;;;;;5.24;100.00;99035.47;5029866;28;20623;-55
2023/01/04 03:56:21;;;;;;;89.30;12.02;;;;;;;4.75;100.00;99038.03;5030160;28;20571;-55
2023/01/04 03:58:47;;;;;;;99.15;10.45;;;;;;;3.93;100.00;99034.91;5031283;28;20063;-55
2023/01/04 04:01:12;;;;;;;143.18;15.75;;;;;;;4.10;100.00;99025.25;5032392;28;20040;-55
2023/01/04 04:09:06;;;;;;;114.78;14.10;;;;;;;5.03;100.00;99027.84;5033079;28;20085;-56
2023/01/04 04:11:31;;;;;;;112.90;13.45;;;;;;;4.54;100.00;99023.50;5031106;28;20034;-54
2023/01/04 04:13:58;;;;;;;141.40;16.65;;;;;;;4.74;100.00;99028.53;5030675;28;20394;-55
2023/01/04 04:16:24;;;;;;;111.93;13.85;;;;;;;5.51;100.00;99020.88;5031080;28;20041;-55
2023/01/04 04:18:49;;;;;;;122.10;16.30;;;;;;;5.30;100.00;99011.56;5028679;28;20045;-55
2023/01/04 04:21:15;;;;;;;146.07;16.48;;;;;;;4.93;100.00;99011.16;5028520;28;20037;-55
2023/01/04 04:23:40;;;;;;;121.40;17.35;;;;;;;4.97;100.00;99001.84;5030625;28;20044;-54
2023/01/04 04:26:06;;;;;;;111.93;15.45;;;;;;;5.31;100.00;99001.31;5029589;28;20045;-57
2023/01/04 04:28:32;;;;;;;93.95;11.18;;;;;;;5.42;100.00;98996.50;5030838;28;20059;-55
2023/01/04 04:30:57;;;;;;;110.03;13.77;;;;;;;5.50;100.00;99001.94;5032341;28;20037;-55
2023/01/04 04:33:23;;;;;;;83.40;11.35;;;;;;;5.26;100.00;98992.53;5029820;28;20025;-55
2023/01/04 04:35:53;;;;;;;110.03;15.55;;;;;;;5.38;100.00;98991.22;5030796;28;20807;-54
2023/01/04 04:38:19;;;;;;;105.25;16.10;;;;;;;5.49;100.00;98994.16;5031466;28;20445;-55
2023/01/04 04:43:29;;;;;;;92.75;16.02;;;;;;;5.78;100.00;98992.50;5030706;28;20044;-54
2023/01/04 04:45:55;;;;;;;91.50;12.18;;;;;;;6.18;100.00;98992.03;5029571;28;20033;-55
2023/01/04 04:48:21;;;;;;;116.00;13.60;;;;;;;5.82;100.00;98983.16;5029317;28;20104;-56
2023/01/04 04:50:46;;;;;;;123.25;15.90;;;;;;;5.36;100.00;98983.41;5029195;28;20043;-55
2023/01/04 04:53:11;;;;;;;116.43;15.10;;;;;;;5.49;100.00;98989.00;5029544;28;20634;-55
2023/01/04 04:55:37;;;;;;;115.68;16.58;;;;;;;5.82;100.00;98986.63;5030722;28;20048;-55
2023/01/04 04:58:02;;;;;;;118.45;15.55;;;;;;;5.28;100.00;98995.16;5030939;28;20025;-56
2023/01/04 05:00:27;;;;;;;119.78;15.02;;;;;;;6.03;100.00;98982.06;5027567;28;20198;-55
2023/01/04 05:02:53;;;;;;;97.88;13.93;;;;;;;6.04;100.00;98978.69;5028718;28;20029;-54
2023/01/04 05:05:18;;;;;;;114.50;14.73;;;;;;;5.71;100.00;98970.78;5029027;28;20025;-56
2023/01/04 05:07:43;;;;;;;103.32;13.15;;;;;;;5.82;100.00;98967.66;5030005;28;20431;-55
2023/01/04 05:10:09;;;;;;;114.18;15.70;;;;;;;5.89;100.00;98959.28;5029231;28;20033;-54
2023/01/04 05:13:16;;;;;;;125.53;16.10;;;;;;;6.08;100.00;98965.94;5031035;28;20113;-55
2023/01/04 05:15:22;;;;;;;89.82;13.23;;;;;;;6.10;100.00;98959.13;5027978;28;20572;-57
2023/01/04 05:17:48;;;;;;;104.88;13.32;;;;;;;6.27;100.00;98960.44;5030090;28;20848;-55
2023/01/04 05:20:13;;;;;;;114.72;14.98;;;;;;;6.37;100.00;98962.47;5030072;28;20444;-56
2023/01/04 05:22:39;;;;;;;127.03;14.63;;;;;;;6.64;100.00;98958.91;5029341;28;20560;-54
2023/01/04 05:25:07;;;;;;;91.05;14.05;;;;;;;6.39;100.00;98960.81;5031122;28;20059;-55
2023/01/04 05:27:32;;;;;;;100.00;14.90;;;;;;;6.73;100.00;98945.38;5030261;28;20021;-55
2023/01/04 05:32:41;;;;;;;134.23;15.68;;;;;;;6.56;100.00;98963.88;5028030;28;20115;-55
2023/01/04 05:35:07;;;;;;;87.93;12.57;;;;;;;6.83;100.00;98964.59;5028398;28;20043;-55
2023/01/04 05:37:32;;;;;;;82.95;10.30;;;;;;;6.14;100.00;98964.34;5029766;28;20036;-55
2023/01/04 05:39:58;;;;;;;117.93;14.82;;;;;;;5.85;100.00;98966.06;5033068;28;20052;-55
2023/01/04 05:42:26;;;;;;;112.43;14.85;;;;;;;6.46;100.00;98962.72;5033506;28;20033;-55
2023/01/04 05:44:53;;;;;;;105.50;13.75;;;;;;;6.38;100.00;98959.91;5032282;28;20025;-54
2023/01/04 05:47:19;;;;;;;109.97;14.02;;;;;;;6.20;100.00;98961.97;5031936;28;20037;-56
2023/01/04 05:49:44;;;;;;;146.85;17.65;;;;;;;6.04;100.00;98953.75;5031015;28;20017;-55
2023/01/04 05:52:10;;;;;;;110.53;14.15;;;;;;;6.31;100.00;98951.97;5032889;28;20090;-55
2023/01/04 05:54:35;;;;;;;104.80;14.13;;;;;;;6.49;100.00;98954.16;5035274;28;20017;-55
2023/01/04 05:57:01;;;;;;;105.35;14.27;;;;;;;6.15;100.00;98956.66;5030307;28;20040;-57
2023/01/04 05:59:26;;;;;;;104.68;13.65;;;;;;;6.32;100.00;98959.75;5033208;28;20630;-56
2023/01/04 06:01:51;;;;;;;105.07;14.35;;;;;;;6.72;100.00;98949.66;5032252;28;20106;-55
2023/01/04 06:04:17;;;;;;;114.75;14.07;;;;;;;6.73;100.00;98942.78;5032853;28;20032;-54
2023/01/04 06:06:42;;;;;;;95.38;13.63;;;;;;;7.37;100.00;98937.53;5031738;28;20083;-55
2023/01/04 06:09:07;;;;;;;120.05;15.05;;;;;;;6.87;100.00;98944.03;5032067;28;20497;-55
2023/01/04 06:11:33;;;;;;;96.90;13.07;;;;;;;6.78;100.00;98946.38;5033179;28;20531;-55
2023/01/04 06:13:58;;;;;;;92.70;12.35;;;;;;;6.26;100.00;98949.22;5033606;28;20108;-55
2023/01/04 06:16:23;;;;;;;112.47;13.65;;;;;;;6.47;100.00;98938.66;5034335;28;20040;-55
2023/01/04 06:18:49;;;;;;;109.22;15.02;;;;;;;6.47;100.00;98935.19;5031418;28;20041;-55
2023/01/04 06:21:14;;;;;;;127.95;13.73;;;;;;;6.41;100.00;98929.81;5032206;28;20036;-54
2023/01/04 06:23:40;;;;;;;102.25;13.95;;;;;;;6.46;100.00;98920.50;5033092;28;20029;-54
2023/01/04 06:26:05;;;;;;;130.55;20.27;;;;;;;6.23;100.00;98924.19;5032714;28;20033;-54
2023/01/04 06:28:30;;;;;;;139.43;17.08;;;;;;;6.14;100.00;98913.56;5032317;28;20068;-55
2023/01/04 06:30:56;;;;;;;102.57;13.88;;;;;;;6.51;100.00;98909.47;5032484;28;20100;-55
2023/01/04 06:33:21;;;;;;;97.78;13.85;;;;;;;6.80;100.00;98908.50;5033050;28;20497;-56
2023/01/04 06:35:54;;;;;;;86.32;13.13;;;;;;;6.15;100.00;98906.69;5032465;28;20060;-55
2023/01/04 06:38:19;;;;;;;97.13;14.15;;;;;;;5.62;100.00;98908.56;5034905;28;20252;-56
2023/01/04 06:40:45;;;;;;;97.97;13.93;;;;;;;5.24;100.00;98898.75;5033113;28;20751;-56
2023/01/04 06:43:10;;;;;;;101.07;13.77;;;;;;;5.03;100.00;98892.06;5030903;28;20029;-56
2023/01/04 06:45:35;;;;;;;138.80;15.90;;;;;;;5.01;100.00;98885.97;5032345;28;20029;-54
2023/01/04 06:48:01;;;;;;;104.43;12.70;;;;;;;4.92;100.00;98878.81;5028681;28;20025;-53
2023/01/04 06:50:26;;;;;;;105.60;12.93;;;;;;;4.95;100.00;98885.75;5029607;28;20017;-55
2023/01/04 06:52:51;;;;;;;106.68;13.80;;;;;;;5.63;100.00;98888.75;5033036;28;20144;-54
2023/01/04 06:55:17;;;;;;;107.50;13.98;;;;;;;5.79;100.00;98887.56;5030140;28;20159;-55
2023/01/04 06:57:42;;;;;;;117.03;14.20;;;;;;;5.65;100.00;98888.00;5031011;28;20041;-55
2023/01/04 07:00:08;;;;;;;104.43;13.80;;;;;;;5.72;100.00;98878.75;5032961;28;20029;-54
2023/01/04 07:02:34;;;;;;;112.57;14.55;;;;;;;6.03;100.00;98890.00;5031267;28;20350;-57
2023/01/04 07:04:59;;;;;;;103.40;14.45;;;;;;;6.23;100.00;98881.94;5030452;28;20499;-54
2023/01/04 07:07:25;;;;;;;93.68;12.45;;;;;;;5.52;100.00;98884.16;5030468;28;20068;-55
2023/01/04 07:09:50;;;;;;;134.52;15.77;;;;;;;5.95;100.00;98873.38;5032786;28;20188;-57
2023/01/04 07:12:15;;;;;;;97.75;11.82;;;;;;;6.44;100.00;98867.88;5032680;28;20123;-57
2023/01/04 07:14:41;;;;;;;82.35;9.25;;;;;;;5.97;100.00;98869.13;5033879;28;20435;-55
2023/01/04 07:17:06;;;;;;;99.95;13.63;;;;;;;6.38;100.00;98863.41;5033759;28;20041;-56
2023/01/04 07:19:31;;;;;;;108.95;13.52;;;;;;;6.58;100.00;98865.69;5033091;28;20570;-56
2023/01/04 07:21:57;;;;;;;93.20;12.35;;;;;;;6.56;100.00;98875.97;5031962;28;20045;-56
2023/01/04 07:24:24;;;;;;;108.25;14.55;;;;;;;6.66;100.00;98860.72;5031848;28;20045;-56
2023/01/04 07:26:49;;;;;;;86.90;11.52;;;;;;;6.84;100.00;98850.88;5031056;28;20136;-57
2023/01/04 07:29:15;;;;;;;101.72;12.75;;;;;;;6.96;100.00;98846.81;5032060;28;20022;-57
2023/01/04 07:31:51;;;;;;;87.10;12.40;;;;;;;6.89;100.00;98849.25;5028998;28;20555;-56
2023/01/04 07:34:19;;;;;;;97.82;12.32;;;;;;;6.76;100.00;98844.63;5029566;28;20197;-56
2023/01/04 07:36:46;;;;;;;91.55;11.80;;;;;;;6.94;100.00;98841.59;5033083;28;20029;-56
2023/01/04 07:39:11;;;;;;;82.35;11.75;;;;;;;6.88;100.00;98842.34;5030202;28;20035;-56
2023/01/04 07:41:40;;;;;;;88.78;12.32;;;;;;;7.33;100.00;98846.84;5028932;28;20037;-59
2023/01/04 07:44:07;;;;;;;80.82;10.38;;;;;;;6.90;100.00;98839.78;5032784;28;20591;-57
2023/01/04 07:46:33;;;;;;;122.00;13.85;;;;;;;7.18;100.00;98839.59;5030880;28;20025;-58
2023/01/04 07:49:00;;;;;;;87.45;11.52;;;;;;;6.84;100.00;98845.69;5028346;28;20370;-56
2023/01/04 07:51:25;;;;;;;94.45;12.55;;;;;;;7.24;100.00;98844.94;5030712;28;20744;-56
2023/01/04 07:53:51;;;;;;;86.90;12.02;;;;;;;7.25;100.00;98846.66;5032521;28;20028;-54
2023/01/04 07:56:17;;;;;;;89.15;10.65;;;;;;;6.84;100.00;98840.53;5030473;28;20457;-55
2023/01/04 07:58:42;;;;;;;121.38;14.38;;;;;;;7.48;100.00;98838.56;5030561;28;20108;-56
2023/01/04 08:01:11;;;;;;;99.75;13.02;;;;;;;7.86;100.00;98840.22;5029312;28;20041;-54
2023/01/04 08:03:36;;;;;;;90.25;11.30;;;;;;;7.47;100.00;98836.81;5031601;28;20035;-54
2023/01/04 08:06:03;;;;;;;75.75;7.93;;;;;;;7.26;100.00;98838.94;5031113;28;20116;-54
2023/01/04 08:08:29;;;;;;;102.15;13.60;;;;;;;7.39;100.00;98840.09;5030196;28;20021;-54
2023/01/04 08:10:54;;;;;;;98.82;11.07;;;;;;;7.21;100.00;98832.78;5028319;28;20049;-54
2023/01/04 08:13:20;;;;;;;86.13;11.80;;;;;;;6.86;100.00;98837.94;5030201;28;20058;-54
2023/01/04 08:15:52;;;;;;;109.45;13.13;;;;;;;7.24;100.00;98839.75;5029688;28;20946;-54
2023/01/04 08:18:17;;;;;;;77.30;8.98;;;;;;;6.56;100.00;98839.78;5028689;28;20028;-54
2023/01/04 08:20:42;;;;;;;88.28;10.85;;;;;;;6.71;100.00;98834.16;5026690;28;20710;-54
2023/01/04 08:23:08;;;;;;;104.25;12.45;;;;;;;7.33;100.00;98828.72;5030994;28;20033;-54
2023/01/04 08:25:33;;;;;;;88.03;12.75;;;;;;;7.58;100.00;98839.66;5028359;28;20037;-54
2023/01/04 08:27:58;;;;;;;101.70;14.43;;;;;;;7.35;100.00;98827.91;5031090;28;20036;-55
2023/01/04 08:30:24;;;;;;;112.15;13.73;;;;;;;7.28;100.00;98823.47;5027814;28;20040;-55
2023/01/04 08:32:52;;;;;;;92.10;10.02;;;;;;;6.93;100.00;98818.28;5030522;28;20024;-55
2023/01/04 08:35:17;;;;;;;66.93;8.65;;;;;;;6.83;100.00;98806.88;5031621;28;20036;-55
2023/01/04 08:37:43;;;;;;;88.80;12.98;;;;;;;7.13;100.00;98809.31;5032417;28;20741;-55
2023/01/04 08:40:09;;;;;;;97.43;10.32;;;;;;;7.10;100.00;98805.78;5029695;28;20068;-56
2023/01/04 08:42:34;;;;;;;96.93;11.77;;;;;;;7.46;100.00;98793.66;5032440;28;20106;-56
2023/01/04 08:45:00;;;;;;;90.88;10.32;;;;;;;7.36;100.00;98793.47;5030590;28;20102;-54
2023/01/04 08:47:29;;;;;;;91.57;12.48;;;;;;;7.16;100.00;98798.16;5027465;28;20075;-55
2023/01/04 08:49:54;;;;;;;94.85;12.10;;;;;;;7.42;100.00;98785.81;5029609;28;20033;-54
2023/01/04 08:52:20;;;;;;;108.32;12.30;;;;;;;7.69;100.00;98771.72;5028882;28;20053;-55
2023/01/04 08:54:46;;;;;;;82.70;10.27;;;;;;;7.24;100.00;98760.38;5032669;28;20174;-55
2023/01/04 08:57:11;;;;;;;100.78;11.98;;;;;;;7.12;100.00;98762.69;5029520;28;20407;-55
2023/01/04 08:59:37;;;;;;;127.63;14.30;;;;;;;7.15;100.00;98753.31;5033564;28;20022;-56
2023/01/04 09:02:02;;;;;;;82.03;11.57;;;;;;;7.50;100.00;98739.38;5028877;28;20033;-56
2023/01/04 09:04:28;;;;;;;105.05;12.52;;;;;;;7.60;100.00;98740.44;5028612;28;20108;-56
2023/01/04 09:06:53;;;;;;;92.70;12.52;;;;;;;8.06;100.00;98737.88;5029486;28;20150;-55
2023/01/04 09:09:18;;;;;;;85.85;11.02;;;;;;;7.92;100.00;98745.41;5029618;28;20041;-55
2023/01/04 09:11:44;;;;;;;77.57;11.15;;;;;;;7.88;100.00;98734.97;5028517;28;20140;-55
2023/01/04 09:14:09;;;;;;;90.53;11.15;;;;;;;7.90;100.00;98731.56;5030375;28;20090;-56
2023/01/04 09:16:38;;;;;;;102.78;11.23;;;;;;;8.02;100.00;98732.66;5031636;28;20033;-56
2023/01/04 09:19:04;;;;;;;91.32;12.68;;;;;;;8.06;100.00;98737.03;5034211;28;20098;-53
2023/01/04 09:21:29;;;;;;;100.18;11.32;;;;;;;7.84;100.00;98735.75;5033777;28;20025;-53
2023/01/04 09:23:55;;;;;;;87.93;10.88;;;;;;;8.33;100.00;98738.38;5034425;28;20052;-55
2023/01/04 09:26:22;;;;;;;86.00;11.40;;;;;;;8.36;100.00;98730.66;5032509;28;20033;-53
2023/01/04 09:28:52;;;;;;;97.38;11.88;;;;;;;8.56;100.00;98733.63;5033351;28;20098;-57
2023/01/04 09:31:20;;;;;;;114.85;12.10;;;;;;;8.14;100.00;98735.47;5030236;28;20497;-57
2023/01/04 09:33:46;;;;;;;103.88;12.18;;;;;;;8.31;100.00;98724.50;5035163;28;20025;-57
2023/01/04 09:36:15;;;;;;;90.07;11.70;;;;;;;8.21;100.00;98721.75;5034218;28;20059;-57
2023/01/04 09:38:40;;;;;;;83.80;9.10;;;;;;;8.06;100.00;98727.53;5035494;28;20050;-56
2023/01/04 09:41:14;;;;;;;108.95;12.40;;;;;;;8.40;100.00;98721.22;5032734;28;20128;-56
2023/01/04 09:43:54;;;;;;;79.53;11.45;;;;;;;8.11;100.00;98725.03;5033447;28;20025;-56
2023/01/04 09:46:46;;;;;;;79.05;12.82;;;;;;;8.47;100.00;98734.31;5033042;28;20442;-56
2023/01/04 09:49:18;;;;;;;56.03;7.85;;;;;;;8.18;100.00;98718.25;5034695;28;20037;-58
2023/01/04 09:51:54;;;;;;;;;;;;;;;8.16;100.00;98718.22;5037556;28;20755;-56
2023/01/04 09:54:23;;;;;;;74.18;9.88;;;;;;;8.34;100.00;98714.19;5032676;28;19912;-55
2023/01/04 09:56:54;;;;;;;74.47;10.05;;;;;;;8.33;100.00;98717.66;5034169;28;20048;-55
2023/01/04 09:59:30;;;;;;;74.68;9.60;;;;;;;8.40;100.00;98729.88;5038682;28;20052;-56
2023/01/04 10:02:16;;;;;;;73.63;9.90;;;;;;;8.57;100.00;98722.41;5032968;28;20029;-56
2023/01/04 10:04:46;;;;;;;75.95;9.75;;;;;;;8.89;100.00;98720.28;5033595;28;20033;-56
2023/01/04 10:07:29;;;;;;;91.38;10.80;;;;;;;8.66;100.00;98723.41;5031350;28;20041;-56
2023/01/04 10:09:55;;;;;;;79.07;9.27;;;;;;;8.46;100.00;98723.91;5033463;28;20045;-56
2023/01/04 10:12:44;;;;;;;69.47;8.93;;;;;;;8.65;100.00;98717.34;5032305;28;20898;-56
2023/01/04 10:15:16;;;;;;;82.38;10.60;;;;;;;8.88;100.00;98711.66;5033180;28;20079;-56
2023/01/04 10:17:41;;;;;;;69.40;8.73;;;;;;;9.14;100.00;98693.00;5032620;28;20632;-56
2023/01/04 10:20:44;;;;;;;78.40;10.15;;;;;;;8.83;100.00;98697.72;5034371;28;20087;-58
2023/01/04 10:23:09;;;;;;;79.57;9.80;;;;;;;8.96;100.00;98698.78;5032193;28;20041;-56
2023/01/04 10:25:53;;;;;;;66.03;8.85;;;;;;;8.90;100.00;98691.78;5034929;28;20059;-56
2023/01/04 10:28:56;;;;;;;82.70;9.93;;;;;;;9.04;100.00;98676.41;5032277;28;20029;-55
2023/01/04 10:31:41;;;;;;;87.35;10.05;;;;;;;9.14;100.00;98681.72;5032414;28;20188;-56
2023/01/04 10:34:31;;;;;;;69.75;8.63;;;;;;;9.45;100.00;98682.13;5035972;28;20032;-56
2023/01/04 10:36:59;;;;;;;61.50;7.57;;;;;;;9.21;100.00;98674.03;5034480;28;20036;-56
2023/01/04 10:39:30;;;;;;;88.40;9.43;;;;;;;9.05;100.00;98672.97;5034425;28;20505;-58
2023/01/04 10:42:13;;;;;;;59.60;6.53;;;;;;;9.15;100.00;98665.28;5032944;28;20044;-57
2023/01/04 10:45:06;;;;;;;65.95;7.93;;;;;;;8.92;100.00;98656.38;5034138;28;20017;-56
2023/01/04 10:47:36;;;;;;;;;;;;;;;8.90;100.00;98652.88;5034802;28;20160;-56
2023/01/04 10:50:10;;;;;;;64.10;6.88;;;;;;;8.91;100.00;98651.16;5031118;28;20023;-56
2023/01/04 10:52:50;;;;;;;78.03;8.50;;;;;;;9.07;100.00;98649.63;5031851;28;20033;-57
2023/01/04 10:55:30;;;;;;;71.22;8.13;;;;;;;9.40;100.00;98647.44;5030726;28;20016;-56
2023/01/04 10:58:03;;;;;;;57.00;7.07;;;;;;;9.32;100.00;98635.22;5031957;28;20029;-56
2023/01/04 11:00:37;;;;;;;63.97;7.05;;;;;;;9.30;100.00;98628.28;5032768;28;20904;-56
2023/01/04 11:03:07;;;;;;;59.38;6.75;;;;;;;9.59;100.00;98619.97;5031878;28;20068;-56
2023/01/04 11:05:43;;;;;;;63.00;6.45;;;;;;;9.50;100.00;98618.13;5030092;28;20422;-55
2023/01/04 11:08:32;;;;;;;64.22;6.68;;;;;;;9.53;100.00;98618.16;5031094;28;20120;-56
2023/01/04 11:11:09;;;;;;;62.45;6.35;;;;;;;9.45;100.00;98607.69;5031091;28;20033;-57
2023/01/04 11:13:35;;;;;;;70.53;7.07;;;;;;;9.42;100.00;98609.41;5030999;28;20060;-56
2023/01/04 11:16:02;;;;;;;70.28;6.93;;;;;;;9.37;100.00;98612.81;5031195;28;20067;-54
2023/01/04 11:18:30;;;;;;;59.47;6.30;;;;;;;9.41;100.00;98616.31;5032925;28;20099;-55
2023/01/04 11:20:56;;;;;;;77.68;7.72;;;;;;;9.69;100.00;98606.19;5030268;28;20844;-56
2023/01/04 11:23:22;;;;;;;58.70;6.50;;;;;;;9.73;100.00;98605.38;5033008;28;20562;-55
2023/01/04 11:25:55;;;;;;;67.00;6.53;;;;;;;9.76;100.00;98604.53;5031132;28;20033;-55
2023/01/04 11:28:28;;;;;;;66.38;6.30;;;;;;;9.40;100.00;98596.41;5031422;28;20122;-55
2023/01/04 11:31:10;;;;;;;64.95;6.78;;;;;;;9.82;100.00;98608.94;5034569;28;20071;-56
2023/01/04 11:33:54;;;;;;;57.60;6.32;;;;;;;9.55;100.00;98598.28;5030174;28;20029;-55
2023/01/04 11:36:42;;;;;;;66.72;6.90;;;;;;;10.01;100.00;98596.97;5033192;28;20037;-56
2023/01/04 11:39:25;;;;;;;75.38;6.97;;;;;;;9.92;100.00;98595.19;5030277;28;20029;-55
2023/01/04 11:41:58;;;;;;;52.97;5.53;;;;;;;9.75;100.00;98590.69;5031390;28;20049;-55
2023/01/04 11:44:25;;;;;;;49.45;5.20;;;;;;;9.72;100.00;98589.78;5032817;28;20383;-55
2023/01/04 11:47:20;;;;;;;48.25;5.53;;;;;;;10.12;100.00;98590.16;5030514;28;20044;-55
2023/01/04 11:49:46;;;;;;;93.35;7.80;;;;;;;9.91;100.00;98575.22;5052452;28;20017;-54
2023/01/04 11:52:27;;;;;;;85.53;7.15;;;;;;;10.06;100.00;98568.44;5029278;28;20041;-55
2023/01/04 11:54:52;;;;;;;61.03;5.95;;;;;;;9.96;100.00;98565.78;5031926;28;20033;-55
2023/01/04 11:57:19;;;;;;;66.72;6.60;;;;;;;10.14;100.00;98565.03;5030619;28;20090;-54
2023/01/04 11:59:44;;;;;;;80.85;7.47;;;;;;;10.49;100.00;98558.38;5032089;28;20020;-55
2023/01/04 12:02:22;;;;;;;52.05;5.28;;;;;;;10.48;100.00;98560.97;5052171;28;20072;-55
2023/01/04 12:04:48;;;;;;;57.20;5.28;;;;;;;10.08;100.00;98556.31;5032699;28;20535;-55
2023/01/04 12:07:31;;;;;;;60.55;5.97;;;;;;;10.29;100.00;98546.06;5032069;28;20029;-55
2023/01/04 12:10:14;;;;;;;59.10;5.68;;;;;;;10.81;100.00;98544.66;5046579;28;20182;-55
2023/01/04 12:12:40;;;;;;;57.28;6.28;;;;;;;10.33;100.00;98548.69;5030357;28;20037;-55
2023/01/04 12:15:18;;;;;;;54.97;5.13;;;;;;;10.23;100.00;98532.16;5029637;28;20029;-55
2023/01/04 12:17:55;;;;;;;60.47;5.25;;;;;;;10.22;100.00;98522.63;5032474;28;20126;-55
2023/01/04 12:20:26;;;;;;;64.47;6.18;;;;;;;10.36;100.00;98520.13;5029076;28;20072;-55